Airfield :







YOU CAN JOIN US ON...

 
LOGIN :

Register | Disclaimer

   EN    FR    IT 

 









Legend :    VFR   Marginal VFR   IFR   Intensive IFR   Very Intensive IFR
Visi :
Ceiling :
>= 8 km
>= 3000ft
5 to 8 km
1000 to 3000 ft
1500m to 5 km
500 to 1000 ft
800 to 1500m
200 to 500 ft
< 800m
< 200 ft
Symbols :   Thunderstorms  Fog  Heavy snow  Heavy precipitations  Wind > 20 kt







- Airport Elevation : 118 ft
- IATA code : YUL


CYUL - Montréal - Pierre-Elliott-Trudeau Int.

CURRENT METAR :
  • 160800Z 24006KT 15SM FEW030 FEW045 12/12 A2983 RMK SC1SC1 SC TR SC TR SLP102

EXPIRED METARs :
  • 160700Z 24008KT 15SM FEW025 FEW040 14/13 A2982 RMK SC1SC1 SC TR SLP101
  • 160600Z 24006KT 15SM FEW012 SCT025 BKN045 15/14 A2982 RMK SF1SC4SC2 SF TR SLP101 DENSITY ALT 300FT

TAF TAF CYUL
Valid from the 16 at 06:00 until the 17 at 06:00 UTC


160539Z 1606/1706 24008KT P6SM SCT020
TEMPO 1606/1612 FEW008 BKN020
PROB30 1607/1611 2SM BR
FM161400 25010KT P6SM SCT040
FM161900 27010KT P6SM SCT050 RMK NXT FCST BY 160900Z
ATIS : ENG : +1 514-633-3037 FRA : +1 514-633-3034
CZUL FIR / North America



MET'MAP, your aeronautical weather chart ! - Copyright ORBIFLY December 2007 - Disclaimer

ORBIFLY MET'MAP TEAM :

Programming & Development : Alexandra Zaïnal
Concept & Development : Baudouin d'Aumeries
Co-Development & Prog : Marc-Olivier Méhu
Technical & hardware support : Manuel Goepfert

Contact : metmap@orbifly.com




SOURCES & CREDITS :

   NOAA